KBTP

Pittsburgh/Butler Regional Airport

Butler, Pennsylvania, USA
METAR KBTP 151256Z AUTO 00000KT 9SM FEW030 M13/M14 A2995 RMK AO2 SLP174 T11281144 FZRANO
Observed Flight Rules
Dec-15 @ 12:56 UTC (an hour ago) Visual Flight Rules
Wind Visibility Clouds
Calm 9 miles
  • Few at 3,000' AGL
Temperatures Readings
Current -13°C / 9°F
Dewpoint -14°C / 7°F
Humidity 92%
Altimeter 29.95" Hg
Pressure 1017.4 hPa
Elevation 380
METAR KBTP 151256Z AUTO 00000KT 9SM FEW030 M13/M14 A2995 RMK AO2 SLP174 T11281144 FZRANO
Observed Flight Rules
Dec-15 @ 12:56 UTC
(an hour ago)
VFR
Wind Visibility
Calm 9 miles
Clouds
  • Few at 3,000' AGL
Temperature Dewpoint
-13°C / 9°F -14°C / 7°F
Humidity Altimeter Pressure
92% 29.95" Hg 1017.4 hPa